Time;durP1;ratioP1;P1;durP2;ratioP2;P2;SDS_P1;SDS_P2;PMS_P1;PMS_P2;Temp;Humidity;BMP_temperature;BMP_pressure;BME280_temperature;BME280_humidity;BME280_pressure;Samples;Min_cycle;Max_cycle;Signal;HPM_P1;HPM_P2
2022/01/07 00:00:16;;;;;;;0.90;0.70;;;;;;;-1.28;71.16;98398.70;105131;1273;74589;-23
2022/01/07 00:02:55;;;;;;;1.10;0.90;;;;;;;-1.08;70.08;98391.85;104629;1271;74334;-22
2022/01/07 00:05:28;;;;;;;2.40;1.00;;;;;;;-0.61;68.34;98404.11;104677;1271;61177;-22
2022/01/07 00:07:58;;;;;;;1.20;0.90;;;;;;;-0.65;67.58;98399.17;104791;1271;61127;-23
2022/01/07 00:10:27;;;;;;;2.10;1.00;;;;;;;-0.71;68.14;98421.61;104850;1274;73795;-24
2022/01/07 00:12:56;;;;;;;1.80;1.30;;;;;;;-1.03;69.02;98423.36;104857;1272;76101;-24
2022/01/07 00:15:25;;;;;;;1.10;1.00;;;;;;;-1.17;69.65;98430.29;104861;1271;74324;-24
2022/01/07 00:17:53;;;;;;;1.00;0.80;;;;;;;-1.20;69.33;98430.56;104827;1271;61131;-24
2022/01/07 00:20:21;;;;;;;1.10;0.90;;;;;;;-1.35;70.29;98432.91;104693;1271;61072;-24
2022/01/07 00:22:49;;;;;;;2.70;1.10;;;;;;;-1.45;70.21;98430.27;104730;1272;75560;-25
2022/01/07 00:25:18;;;;;;;1.80;1.20;;;;;;;-1.55;71.13;98438.51;104777;1271;73172;-24
2022/01/07 00:27:47;;;;;;;1.50;1.10;;;;;;;-1.28;70.20;98457.83;104783;1271;74464;-24
2022/01/07 00:30:16;;;;;;;1.90;1.40;;;;;;;-1.04;69.43;98459.34;104798;1271;61672;-24
2022/01/07 00:32:45;;;;;;;3.30;1.40;;;;;;;-1.10;68.72;98456.38;104836;1274;61294;-24
2022/01/07 00:35:14;;;;;;;3.80;1.80;;;;;;;-1.04;69.33;98465.48;104844;1272;75335;-25
2022/01/07 00:37:44;;;;;;;1.90;1.40;;;;;;;-1.23;69.49;98465.76;104817;1274;74562;-24
2022/01/07 00:40:15;;;;;;;2.90;1.70;;;;;;;-1.40;70.04;98467.18;104705;1275;73456;-24
2022/01/07 00:42:45;;;;;;;2.80;1.60;;;;;;;-1.41;70.49;98470.77;104727;1274;61377;-24
2022/01/07 00:45:13;;;;;;;2.10;1.50;;;;;;;-1.50;69.94;98465.86;104787;1271;61871;-24
2022/01/07 00:47:42;;;;;;;2.70;1.80;;;;;;;-1.56;70.42;98464.23;104777;1271;74619;-23
2022/01/07 00:50:10;;;;;;;2.50;1.80;;;;;;;-1.25;69.53;98478.48;104805;1271;76251;-22
2022/01/07 00:52:39;;;;;;;4.50;2.30;;;;;;;-0.90;68.57;98480.06;104849;1271;74186;-23
2022/01/07 00:55:08;;;;;;;3.00;2.00;;;;;;;-0.96;68.17;98480.32;104783;1272;61137;-23
2022/01/07 00:57:36;;;;;;;2.50;1.90;;;;;;;-0.98;68.30;98472.91;104760;1272;61173;-22
2022/01/07 01:00:07;;;;;;;2.50;2.00;;;;;;;-1.12;68.80;98478.27;104799;1272;74319;-22
2022/01/07 01:02:35;;;;;;;4.00;2.50;;;;;;;-1.45;70.13;98477.27;104743;1272;75773;-23
2022/01/07 01:05:06;;;;;;;3.20;2.50;;;;;;;-1.57;71.48;98494.77;104763;1271;73415;-22
2022/01/07 01:07:34;;;;;;;5.20;2.80;;;;;;;-1.66;71.40;98487.46;104615;1274;62484;-22
2022/01/07 01:10:07;;;;;;;4.70;2.40;;;;;;;-1.71;72.47;98493.11;104708;1272;61084;-23
2022/01/07 01:12:35;;;;;;;3.50;1.70;;;;;;;-1.18;70.33;98486.36;104782;1274;75640;-23
2022/01/07 01:15:05;;;;;;;2.90;2.00;;;;;;;-1.10;69.42;98494.38;104896;1274;75964;-23
2022/01/07 01:17:34;;;;;;;3.50;2.00;;;;;;;-1.10;70.11;98505.27;104680;1272;74349;-23
2022/01/07 01:20:05;;;;;;;5.10;2.50;;;;;;;-1.29;70.13;98495.14;104792;1274;61032;-23
2022/01/07 01:22:34;;;;;;;4.20;2.30;;;;;;;-1.41;71.18;98507.58;104630;1274;61978;-23
2022/01/07 01:25:03;;;;;;;4.30;2.90;;;;;;;-1.49;71.23;98500.56;104767;1271;74688;-22
2022/01/07 01:27:32;;;;;;;4.30;1.90;;;;;;;-1.57;71.53;98501.91;104751;1274;76114;-23
2022/01/07 01:30:02;;;;;;;3.50;2.20;;;;;;;-1.56;71.66;98503.59;104711;1271;74466;-23
2022/01/07 01:32:31;;;;;;;2.70;1.70;;;;;;;-1.22;70.63;98502.04;104730;1274;61059;-23
2022/01/07 01:34:59;;;;;;;3.70;2.00;;;;;;;-0.99;69.07;98485.53;104761;1271;60950;-22
2022/01/07 01:37:29;;;;;;;2.50;2.20;;;;;;;-1.14;70.04;98512.56;104917;1272;74073;-25
2022/01/07 01:39:58;;;;;;;5.40;2.30;;;;;;;-1.34;71.17;98521.77;104783;1272;75144;-23
2022/01/07 01:42:30;;;;;;;4.90;2.60;;;;;;;-1.40;71.11;98525.40;104795;1271;74466;-22
2022/01/07 01:44:58;;;;;;;3.50;2.20;;;;;;;-1.50;71.12;98520.35;104729;1271;61156;-23
2022/01/07 01:47:27;;;;;;;5.30;3.20;;;;;;;-1.68;71.66;98523.28;104777;1271;61075;-22
2022/01/07 01:49:55;;;;;;;2.90;1.80;;;;;;;-1.66;72.70;98535.29;104796;1271;72675;-23
2022/01/07 01:52:23;;;;;;;2.60;1.70;;;;;;;-1.51;72.07;98530.80;104768;1271;74893;-23
2022/01/07 01:54:51;;;;;;;3.40;2.00;;;;;;;-1.01;70.39;98537.61;104901;1271;74407;-23
2022/01/07 01:57:20;;;;;;;2.20;1.50;;;;;;;-0.86;69.59;98545.30;104713;1271;61257;-22
2022/01/07 01:59:48;;;;;;;2.30;1.80;;;;;;;-0.99;70.27;98549.27;104806;1271;61122;-22
2022/01/07 02:02:17;;;;;;;2.00;1.80;;;;;;;-1.10;70.24;98552.29;104810;1271;74515;-22
2022/01/07 02:04:46;;;;;;;2.80;2.10;;;;;;;-1.32;70.94;98559.14;104701;1271;75994;-23
2022/01/07 02:07:14;;;;;;;3.90;2.10;;;;;;;-1.48;71.00;98544.10;104724;1271;73482;-23
2022/01/07 02:09:42;;;;;;;2.40;1.70;;;;;;;-1.63;72.03;98554.24;104824;1271;61053;-23
2022/01/07 02:12:22;;;;;;;3.60;2.40;;;;;;;-1.73;72.11;98552.41;104720;1271;61149;-23
2022/01/07 02:14:52;;;;;;;4.40;2.40;;;;;;;-1.28;71.32;98564.09;104771;1271;75375;-22
2022/01/07 02:17:20;;;;;;;3.30;2.50;;;;;;;-0.95;70.40;98574.51;104758;1274;76048;-23
2022/01/07 02:19:49;;;;;;;2.30;1.60;;;;;;;-1.12;70.92;98566.70;104715;1271;74380;-23
2022/01/07 02:22:17;;;;;;;3.70;2.00;;;;;;;-1.33;70.73;98573.49;104794;1271;61054;-23
2022/01/07 02:24:47;;;;;;;2.20;1.90;;;;;;;-1.43;70.86;98569.80;104735;1271;61186;-22
2022/01/07 02:27:15;;;;;;;2.90;1.90;;;;;;;-1.61;70.66;98567.78;104770;1271;75657;-22
2022/01/07 02:29:45;;;;;;;5.00;1.80;;;;;;;-1.75;71.16;98577.17;104805;1271;74995;-23
2022/01/07 02:32:14;;;;;;;3.70;2.20;;;;;;;-1.84;71.63;98587.53;104843;1274;74848;-24
2022/01/07 02:34:43;;;;;;;3.80;1.70;;;;;;;-1.65;71.35;98593.45;104744;1274;62096;-25
2022/01/07 02:37:13;;;;;;;2.90;1.70;;;;;;;-1.10;69.82;98603.56;104750;1274;61178;-23
2022/01/07 02:39:41;;;;;;;2.80;1.70;;;;;;;-1.15;69.38;98607.84;104829;1271;74528;-22
2022/01/07 02:42:09;;;;;;;2.60;1.50;;;;;;;-1.23;69.49;98609.55;104812;1271;75714;-23
2022/01/07 02:44:38;;;;;;;4.80;2.20;;;;;;;-1.43;70.25;98619.52;104803;1271;72941;-23
2022/01/07 02:47:07;;;;;;;2.80;1.80;;;;;;;-1.53;70.39;98612.92;104742;1271;61169;-23
2022/01/07 02:49:36;;;;;;;2.40;1.40;;;;;;;-1.61;70.42;98607.46;104810;1271;61008;-23
2022/01/07 02:52:05;;;;;;;2.50;2.00;;;;;;;-1.78;71.79;98629.87;104755;1274;74721;-23
2022/01/07 02:54:32;;;;;;;4.20;1.90;;;;;;;-1.73;71.92;98630.53;104773;1274;76119;-22
2022/01/07 02:57:01;;;;;;;3.80;2.20;;;;;;;-1.24;71.02;98637.00;104741;1271;74380;-23
2022/01/07 02:59:29;;;;;;;5.60;2.70;;;;;;;-1.18;70.75;98633.89;104743;1271;61048;-22
2022/01/07 03:01:58;;;;;;;4.70;1.70;;;;;;;-1.31;71.77;98638.48;104834;1272;61099;-23
2022/01/07 03:04:28;;;;;;;3.20;2.10;;;;;;;-1.38;72.35;98649.81;104768;1271;75539;-23
2022/01/07 03:06:56;;;;;;;2.10;1.90;;;;;;;-1.65;73.18;98642.83;104817;1271;75952;-23
2022/01/07 03:09:24;;;;;;;3.30;2.40;;;;;;;-1.75;74.15;98657.02;104758;1271;74443;-25
2022/01/07 03:11:53;;;;;;;3.70;2.50;;;;;;;-1.77;74.64;98663.38;104751;1272;62004;-24
2022/01/07 03:14:25;;;;;;;4.40;2.50;;;;;;;-1.43;74.77;98652.90;104760;1271;61177;-24
2022/01/07 03:17:04;;;;;;;3.30;2.50;;;;;;;-1.36;76.98;98669.50;104695;1274;74266;-24
2022/01/07 03:19:33;;;;;;;3.00;1.90;;;;;;;-1.63;79.10;98666.09;104761;1272;76192;-23
2022/01/07 03:22:02;;;;;;;3.50;2.00;;;;;;;-1.90;81.08;98673.21;104718;1272;72325;-23
2022/01/07 03:24:31;;;;;;;4.00;2.70;;;;;;;-2.04;82.00;98682.04;104767;1272;61046;-23
2022/01/07 03:26:59;;;;;;;3.40;2.20;;;;;;;-2.10;81.37;98676.45;104809;1271;61826;-23
2022/01/07 03:29:27;;;;;;;2.20;1.50;;;;;;;-1.63;78.30;98672.05;104818;1271;75649;-22
2022/01/07 03:31:56;;;;;;;3.50;2.30;;;;;;;-1.43;77.39;98681.16;104776;1274;75119;-23
2022/01/07 03:34:24;;;;;;;4.30;2.30;;;;;;;-1.65;77.76;98668.70;104696;1274;75350;-23
2022/01/07 03:36:53;;;;;;;3.70;2.50;;;;;;;-1.71;78.53;98692.27;104767;1271;61235;-23
2022/01/07 03:39:21;;;;;;;3.00;2.20;;;;;;;-1.92;79.57;98694.20;104758;1272;61703;-23
2022/01/07 03:41:50;;;;;;;4.10;2.00;;;;;;;-2.03;79.43;98695.78;104690;1274;75596;-23
2022/01/07 03:44:18;;;;;;;3.30;2.10;;;;;;;-1.59;77.60;98706.11;104736;1274;74827;-23
2022/01/07 03:46:47;;;;;;;2.70;1.90;;;;;;;-1.44;76.65;98708.45;104777;1271;74335;-23
2022/01/07 03:49:15;;;;;;;1.30;1.10;;;;;;;-1.40;76.27;98712.05;104723;1274;61154;-23
2022/01/07 03:51:43;;;;;;;5.20;1.80;;;;;;;-1.53;76.22;98706.91;104767;1271;61836;-23
2022/01/07 03:54:11;;;;;;;4.10;2.00;;;;;;;-1.95;77.12;98698.56;104788;1272;74443;-23
2022/01/07 03:56:40;;;;;;;2.90;2.20;;;;;;;-1.93;77.52;98712.76;104801;1274;75017;-23
2022/01/07 03:59:08;;;;;;;3.10;1.50;;;;;;;-1.94;77.61;98722.34;104717;1271;74457;-23
2022/01/07 04:01:36;;;;;;;2.70;2.10;;;;;;;-1.66;76.71;98728.16;104753;1274;61113;-24
2022/01/07 04:04:05;;;;;;;3.80;2.00;;;;;;;-1.66;76.70;98734.60;104724;1274;61727;-23
2022/01/07 04:06:35;;;;;;;2.10;1.70;;;;;;;-1.80;76.64;98723.21;104699;1274;75268;-23
2022/01/07 04:09:03;;;;;;;4.30;2.10;;;;;;;-1.86;76.91;98736.88;104719;1274;75721;-24
2022/01/07 04:11:33;;;;;;;2.10;1.60;;;;;;;-2.04;77.35;98744.61;104762;1272;72292;-23
2022/01/07 04:14:01;;;;;;;2.60;1.80;;;;;;;-1.84;76.56;98745.16;104710;1273;62744;-24
2022/01/07 04:16:30;;;;;;;2.80;1.60;;;;;;;-1.48;75.22;98763.41;104799;1271;61257;-23
2022/01/07 04:18:58;;;;;;;2.90;1.70;;;;;;;-1.53;74.47;98757.14;104847;1271;75385;-23
2022/01/07 04:21:27;;;;;;;2.80;1.60;;;;;;;-1.68;74.97;98764.65;104759;1271;76007;-23
2022/01/07 04:23:55;;;;;;;2.90;2.20;;;;;;;-1.79;75.67;98763.17;104728;1271;74409;-23
2022/01/07 04:26:23;;;;;;;2.50;1.70;;;;;;;-2.00;76.21;98770.38;104736;1272;61226;-24
2022/01/07 04:28:51;;;;;;;3.20;2.00;;;;;;;-2.09;77.00;98783.59;105110;1271;62060;-22
2022/01/07 04:31:20;;;;;;;2.90;1.90;;;;;;;-1.72;76.04;98783.17;105155;1272;75279;-22
2022/01/07 04:33:48;;;;;;;2.80;1.80;;;;;;;-1.45;73.01;98754.83;105155;1271;75999;-23
2022/01/07 04:36:17;;;;;;;2.40;1.90;;;;;;;-1.63;72.81;98787.48;105150;1271;74383;-23
2022/01/07 04:38:46;;;;;;;4.40;2.60;;;;;;;-1.72;73.61;98798.17;104899;1271;61141;-22
2022/01/07 04:41:14;;;;;;;7.70;3.20;;;;;;;-1.92;73.69;98793.58;105069;1271;62150;-22
2022/01/07 04:43:43;;;;;;;3.70;2.70;;;;;;;-2.02;74.22;98796.63;104910;1271;75344;-22
2022/01/07 04:46:11;;;;;;;3.50;3.00;;;;;;;-2.22;74.15;98801.89;104778;1271;75164;-22
2022/01/07 04:48:41;;;;;;;3.40;1.80;;;;;;;-2.14;73.81;98795.67;104797;1271;74432;-24
2022/01/07 04:51:10;;;;;;;5.70;2.20;;;;;;;-1.92;73.34;98802.41;104759;1274;61133;-25
2022/01/07 04:53:38;;;;;;;3.00;1.80;;;;;;;-1.77;72.41;98805.81;104825;1271;60995;-25
2022/01/07 04:56:06;;;;;;;3.90;2.10;;;;;;;-2.06;72.96;98813.08;104821;1271;72947;-24
2022/01/07 04:58:35;;;;;;;3.00;1.70;;;;;;;-2.24;73.20;98821.67;104827;1274;75134;-24
2022/01/07 05:01:03;;;;;;;4.10;2.00;;;;;;;-2.39;73.28;98829.48;104772;1274;71294;-24
2022/01/07 05:03:31;;;;;;;2.90;1.80;;;;;;;-2.56;73.58;98830.83;104857;1271;61170;-25
2022/01/07 05:06:25;;;;;;;3.50;1.80;;;;;;;-2.65;73.00;98831.46;104779;1271;61092;-24
2022/01/07 05:08:48;;;;;;;1.70;1.40;;;;;;;-2.51;72.32;98845.81;104802;1274;74920;-24
2022/01/07 05:11:16;;;;;;;3.70;1.90;;;;;;;-2.22;70.82;98837.77;104757;1272;76243;-24
2022/01/07 05:13:45;;;;;;;5.60;2.10;;;;;;;-2.19;70.18;98845.00;104791;1271;73340;-24
2022/01/07 05:16:13;;;;;;;3.00;1.80;;;;;;;-2.36;70.67;98849.11;104751;1274;61135;-24
2022/01/07 05:18:41;;;;;;;2.30;1.50;;;;;;;-2.48;70.89;98865.79;104820;1271;61024;-24
2022/01/07 05:21:09;;;;;;;5.40;2.10;;;;;;;-2.62;71.26;98870.30;104711;1271;74299;-24
2022/01/07 05:23:38;;;;;;;2.00;1.50;;;;;;;-2.69;71.67;98864.21;104530;1274;352679;-24
2022/01/07 05:26:07;;;;;;;2.20;1.60;;;;;;;-2.74;71.21;98870.83;104658;1274;74426;-24
2022/01/07 05:28:36;;;;;;;2.50;1.80;;;;;;;-2.81;69.24;98870.17;104771;1271;61155;-24
2022/01/07 05:31:04;;;;;;;2.50;1.60;;;;;;;-2.74;71.67;98883.41;104757;1271;61704;-24
2022/01/07 05:33:32;;;;;;;3.10;1.70;;;;;;;-2.29;70.89;98887.84;104829;1271;73403;-24
2022/01/07 05:36:01;;;;;;;1.60;1.30;;;;;;;-2.01;69.35;98899.02;104814;1273;76108;-24
2022/01/07 05:38:29;;;;;;;3.20;1.60;;;;;;;-2.12;69.21;98901.58;104759;1271;73534;-23
2022/01/07 05:40:57;;;;;;;2.20;1.60;;;;;;;-2.30;69.86;98911.15;104690;1274;61070;-23
2022/01/07 05:43:28;;;;;;;1.80;1.30;;;;;;;-2.57;70.88;98912.47;104759;1271;61180;-23
2022/01/07 05:45:57;;;;;;;3.30;1.80;;;;;;;-2.66;71.46;98923.44;104794;1271;75404;-23
2022/01/07 05:48:25;;;;;;;2.20;1.40;;;;;;;-2.81;71.60;98919.96;104791;1272;76064;-23
2022/01/07 05:50:53;;;;;;;1.80;1.50;;;;;;;-2.92;71.38;98917.72;104729;1271;72236;-23
2022/01/07 05:53:21;;;;;;;2.20;1.30;;;;;;;-3.02;72.42;98933.64;104778;1271;60956;-23
2022/01/07 05:55:50;;;;;;;4.70;1.20;;;;;;;-2.78;72.34;98936.54;104724;1274;61140;-23
2022/01/07 05:58:18;;;;;;;1.80;1.40;;;;;;;-2.32;70.68;98944.38;104799;1271;74500;-23
2022/01/07 06:00:46;;;;;;;2.10;1.20;;;;;;;-2.37;70.73;98952.69;104745;1271;75785;-23
2022/01/07 06:03:15;;;;;;;2.70;1.30;;;;;;;-2.56;70.47;98949.52;104802;1271;74153;-23
2022/01/07 06:05:43;;;;;;;2.00;1.40;;;;;;;-2.82;70.05;98957.21;104880;1271;60992;-23
2022/01/07 06:08:11;;;;;;;2.30;1.30;;;;;;;-2.99;70.28;98962.43;104675;1274;61090;-24
2022/01/07 06:10:39;;;;;;;4.30;1.40;;;;;;;-3.12;69.57;98958.38;104717;1271;74537;-24
2022/01/07 06:13:08;;;;;;;2.70;1.20;;;;;;;-3.25;69.87;98959.90;104819;1271;75693;-23
2022/01/07 06:15:37;;;;;;;3.10;1.40;;;;;;;-3.30;70.83;98981.74;105037;1271;74185;-24
2022/01/07 06:18:05;;;;;;;1.40;0.90;;;;;;;-3.26;71.42;98998.30;105147;1271;61772;-23
2022/01/07 06:20:34;;;;;;;3.50;1.40;;;;;;;-2.94;70.07;99005.27;104893;1271;61029;-23
2022/01/07 06:23:03;;;;;;;2.70;1.10;;;;;;;-2.66;69.50;99013.20;104920;1271;74435;-23
2022/01/07 06:25:31;;;;;;;1.30;0.90;;;;;;;-2.69;69.45;99019.19;104869;1271;76043;-23
2022/01/07 06:27:59;;;;;;;1.90;1.10;;;;;;;-2.89;69.97;99021.63;105095;1271;74348;-23
2022/01/07 06:30:28;;;;;;;1.70;1.20;;;;;;;-3.07;69.61;99017.68;105120;1271;61050;-22
2022/01/07 06:32:56;;;;;;;1.90;1.30;;;;;;;-3.22;70.56;99019.43;105137;1271;61048;-22
2022/01/07 06:35:24;;;;;;;1.60;1.10;;;;;;;-3.37;70.67;99033.20;105159;1271;74492;-22
2022/01/07 06:37:57;;;;;;;1.60;1.10;;;;;;;-3.47;71.48;99040.93;105065;1271;75829;-23
2022/01/07 06:40:26;;;;;;;2.40;1.30;;;;;;;-3.57;71.14;99049.65;105158;1271;73445;-22
2022/01/07 06:42:54;;;;;;;2.20;1.20;;;;;;;-3.27;70.33;99062.48;104952;1271;61135;-23
2022/01/07 06:45:22;;;;;;;2.20;1.10;;;;;;;-3.06;69.51;99074.89;104874;1271;61973;-23
2022/01/07 06:47:50;;;;;;;1.40;0.90;;;;;;;-3.13;69.84;99074.91;104744;1271;75567;-23
2022/01/07 06:50:18;;;;;;;3.00;0.90;;;;;;;-3.16;70.30;99089.23;104722;1271;75825;-23
2022/01/07 06:52:47;;;;;;;1.90;1.00;;;;;;;-3.16;69.88;99084.67;104772;1271;74534;-23
2022/01/07 06:55:15;;;;;;;2.00;1.00;;;;;;;-3.17;70.35;99092.31;104779;1271;61240;-23
2022/01/07 06:57:48;;;;;;;5.40;0.90;;;;;;;-3.06;70.82;99089.70;104825;1271;61041;-23
2022/01/07 07:00:17;;;;;;;3.20;1.00;;;;;;;-3.06;70.00;99090.35;105116;1271;75397;-22
2022/01/07 07:02:45;;;;;;;2.40;1.10;;;;;;;-3.19;70.57;99095.93;104844;1271;76018;-23
2022/01/07 07:05:14;;;;;;;2.00;1.00;;;;;;;-3.23;70.89;99098.41;104792;1271;72211;-22
2022/01/07 07:07:43;;;;;;;3.50;1.00;;;;;;;-3.19;71.13;99101.55;104728;1271;61432;-22
2022/01/07 07:10:11;;;;;;;2.10;1.10;;;;;;;-2.78;69.28;99101.88;104863;1271;61828;-24
2022/01/07 07:12:39;;;;;;;3.20;1.00;;;;;;;-2.54;67.87;99108.21;104780;1271;75580;-24
2022/01/07 07:15:08;;;;;;;1.80;1.10;;;;;;;-2.41;66.76;99110.61;104884;1271;74029;-25
2022/01/07 07:17:36;;;;;;;2.00;1.10;;;;;;;-2.56;67.20;99109.45;105100;1272;73432;-23
2022/01/07 07:20:05;;;;;;;1.10;0.80;;;;;;;-2.85;67.08;99104.45;105104;1271;61036;-23
2022/01/07 07:22:33;;;;;;;1.70;1.00;;;;;;;-2.98;67.75;99106.80;105136;1274;62030;-23
2022/01/07 07:25:02;;;;;;;2.40;0.80;;;;;;;-3.10;68.47;99112.55;104941;1272;74626;-23
2022/01/07 07:27:30;;;;;;;1.70;1.00;;;;;;;-3.21;69.53;99116.02;104779;1271;76264;-22
2022/01/07 07:29:58;;;;;;;2.50;1.10;;;;;;;-3.29;69.85;99122.66;104819;1272;73400;-23
2022/01/07 07:32:29;;;;;;;1.80;1.10;;;;;;;-3.22;69.70;99129.30;105143;1271;60945;-23
2022/01/07 07:35:02;;;;;;;1.30;1.00;;;;;;;-3.05;69.28;99129.39;105019;1272;61082;-24
2022/01/07 07:37:31;;;;;;;1.10;0.80;;;;;;;-3.06;69.43;99132.30;105142;1271;75356;-23
2022/01/07 07:40:00;;;;;;;1.70;1.10;;;;;;;-3.16;69.65;99133.73;105116;1271;73951;-24
2022/01/07 07:42:28;;;;;;;1.40;0.80;;;;;;;-3.18;70.12;99135.31;105101;1271;74380;-22
2022/01/07 07:44:59;;;;;;;1.40;0.90;;;;;;;-2.70;69.06;99138.39;104878;1271;61033;-23
2022/01/07 07:47:27;;;;;;;1.10;0.70;;;;;;;-2.36;68.22;99139.21;105002;1271;61067;-23
2022/01/07 07:49:57;;;;;;;1.30;0.90;;;;;;;-2.39;68.07;99141.83;105148;1271;75303;-23
2022/01/07 07:52:25;;;;;;;2.10;1.10;;;;;;;-2.36;68.40;99141.91;105157;1271;76124;-23
2022/01/07 07:54:53;;;;;;;2.90;1.40;;;;;;;-2.24;68.02;99142.63;105149;1271;74491;-24
2022/01/07 07:57:22;;;;;;;1.60;1.20;;;;;;;-2.39;67.53;99135.88;104938;1272;61119;-23
2022/01/07 07:59:50;;;;;;;1.30;1.10;;;;;;;-2.42;68.31;99134.27;104719;1272;61075;-23
2022/01/07 08:02:19;;;;;;;3.00;1.50;;;;;;;-2.43;68.20;99138.73;105153;1271;75480;-23
2022/01/07 08:04:47;;;;;;;1.80;1.10;;;;;;;-2.32;67.93;99145.05;105146;1271;74018;-23
2022/01/07 08:07:17;;;;;;;3.10;1.20;;;;;;;-2.15;67.00;99149.68;104802;1271;73426;-25
2022/01/07 08:09:47;;;;;;;2.30;0.90;;;;;;;-2.24;67.29;99147.56;104797;1271;61136;-23
2022/01/07 08:12:20;;;;;;;1.50;1.20;;;;;;;-2.23;68.36;99155.52;104788;1274;61779;-23
2022/01/07 08:17:35;;;;;;;2.10;1.20;;;;;;;-1.92;67.71;99148.36;104626;1274;75940;-23
2022/01/07 08:20:05;;;;;;;1.80;1.00;;;;;;;-1.88;66.66;99140.94;104838;1271;74216;-23
2022/01/07 08:22:33;;;;;;;2.40;1.20;;;;;;;-1.80;66.01;99148.70;104642;1271;61328;-23
2022/01/07 08:25:02;;;;;;;2.20;1.20;;;;;;;-1.91;66.78;99149.69;104751;1273;61141;-22
2022/01/07 08:27:30;;;;;;;1.10;0.80;;;;;;;-1.77;64.55;99144.04;104782;1272;74738;-21
2022/01/07 08:30:11;;;;;;;1.70;1.00;;;;;;;-1.64;64.00;99155.90;104811;1271;75992;-22
2022/01/07 08:35:27;;;;;;;1.30;1.00;;;;;;;-1.53;63.71;99155.58;104888;1271;61069;-23
2022/01/07 08:37:56;;;;;;;2.30;1.10;;;;;;;-1.71;63.86;99165.11;104886;1271;61886;-23
2022/01/07 08:40:24;;;;;;;1.30;1.10;;;;;;;-1.70;62.83;99156.42;104642;1271;75502;-23
2022/01/07 08:42:53;;;;;;;1.90;0.90;;;;;;;-1.50;61.90;99150.54;104833;1271;72932;-23
2022/01/07 08:45:21;;;;;;;2.80;0.80;;;;;;;-1.62;59.13;99152.44;104730;1271;73455;-23
2022/01/07 08:47:50;;;;;;;2.70;1.00;;;;;;;-1.67;60.58;99155.12;104706;1271;61147;-23
2022/01/07 08:50:18;;;;;;;1.60;0.90;;;;;;;-1.66;60.13;99140.82;104809;1271;61115;-23
2022/01/07 08:52:46;;;;;;;1.40;0.90;;;;;;;-1.47;58.98;99133.43;104721;1272;74649;-23
2022/01/07 08:55:14;;;;;;;1.30;1.00;;;;;;;-1.53;59.29;99150.13;104982;1271;74796;-24
2022/01/07 08:57:43;;;;;;;2.00;1.10;;;;;;;-1.42;58.40;99146.39;104792;1271;72850;-24
2022/01/07 09:00:12;;;;;;;1.60;0.90;;;;;;;-1.42;58.54;99155.41;104769;1273;61147;-22
2022/01/07 09:02:41;;;;;;;2.20;1.00;;;;;;;-1.02;57.01;99160.81;104705;1271;61563;-22
2022/01/07 09:05:10;;;;;;;3.30;1.10;;;;;;;-1.01;57.58;99158.92;104847;1271;73157;-22
2022/01/07 09:07:39;;;;;;;2.40;0.90;;;;;;;-1.19;58.81;99161.52;104814;1271;75959;-24
2022/01/07 09:10:08;;;;;;;1.40;0.80;;;;;;;-1.18;59.18;99161.15;104883;1271;74247;-22
2022/01/07 09:12:36;;;;;;;1.10;0.90;;;;;;;-0.95;58.99;99172.71;104793;1274;61516;-24
2022/01/07 09:15:06;;;;;;;1.00;0.80;;;;;;;-1.08;59.42;99175.35;104811;1273;61110;-22
2022/01/07 09:17:35;;;;;;;2.10;1.00;;;;;;;-1.16;58.83;99180.68;104937;1274;75615;-22
2022/01/07 09:20:05;;;;;;;1.50;0.70;;;;;;;-1.27;58.86;99184.27;104834;1274;73114;-24
2022/01/07 09:22:35;;;;;;;1.40;0.90;;;;;;;-1.52;59.95;99183.48;105098;1271;75008;-24
2022/01/07 09:25:04;;;;;;;1.60;1.10;;;;;;;-1.72;60.86;99196.14;105123;1271;61189;-24
2022/01/07 09:27:33;;;;;;;1.50;1.10;;;;;;;-1.80;61.80;99201.83;105104;1274;61110;-24
2022/01/07 09:30:02;;;;;;;2.30;1.50;;;;;;;-2.01;61.22;99193.70;105183;1271;73780;-24
2022/01/07 09:32:31;;;;;;;0.80;0.70;;;;;;;-2.08;60.86;99189.81;105147;1272;75418;-23
2022/01/07 09:34:59;;;;;;;4.70;1.60;;;;;;;-2.12;62.47;99201.16;105125;1271;72314;-23
2022/01/07 09:37:28;;;;;;;1.40;0.80;;;;;;;-1.93;63.64;99208.14;104843;1271;61099;-24
2022/01/07 09:39:56;;;;;;;1.30;0.60;;;;;;;-1.89;62.61;99184.36;104959;1274;61150;-24
2022/01/07 09:42:24;;;;;;;1.10;1.00;;;;;;;-1.88;62.63;99194.39;104985;1272;74183;-22
2022/01/07 09:44:53;;;;;;;1.90;0.70;;;;;;;-1.90;62.47;99194.27;104837;1274;75094;-22
2022/01/07 09:47:21;;;;;;;2.70;1.00;;;;;;;-1.66;61.50;99193.58;104816;1271;74340;-23
2022/01/07 09:49:50;;;;;;;2.70;1.20;;;;;;;-1.39;61.14;99191.45;104788;1274;61035;-23
2022/01/07 09:52:18;;;;;;;1.30;0.80;;;;;;;-1.42;62.04;99199.00;104799;1271;61040;-23
2022/01/07 09:54:47;;;;;;;2.00;0.80;;;;;;;-1.63;60.67;99196.90;104832;1271;73524;-23
2022/01/07 09:57:16;;;;;;;1.80;1.10;;;;;;;-1.78;61.58;99205.33;105102;1271;76065;-24
2022/01/07 09:59:51;;;;;;;2.80;1.50;;;;;;;-1.78;61.66;99200.55;104806;1271;72194;-25
2022/01/07 10:02:19;;;;;;;1.30;0.70;;;;;;;-1.80;62.28;99211.52;105019;1271;61150;-25
2022/01/07 10:04:48;;;;;;;0.60;0.60;;;;;;;-1.49;62.29;99211.98;105075;1271;61162;-24
2022/01/07 10:07:25;;;;;;;1.10;0.80;;;;;;;-0.98;59.52;99191.71;104934;1271;74544;-22
2022/01/07 10:09:59;;;;;;;2.50;1.00;;;;;;;-0.69;59.14;99203.76;104799;1274;74236;-23
2022/01/07 10:12:30;;;;;;;0.70;0.60;;;;;;;-0.87;59.14;99205.35;105074;1271;73122;-23
2022/01/07 10:15:14;;;;;;;2.00;1.00;;;;;;;-1.03;60.18;99218.63;104726;1272;61258;-23
2022/01/07 10:18:03;;;;;;;1.20;0.80;;;;;;;-1.50;60.87;99224.47;104799;1271;61036;-23
2022/01/07 10:20:34;;;;;;;3.00;0.80;;;;;;;-1.84;61.00;99215.52;104811;1271;75480;-25
2022/01/07 10:23:14;;;;;;;3.20;0.90;;;;;;;-2.02;61.76;99228.61;104823;1271;75945;-23
2022/01/07 10:25:46;;;;;;;2.00;0.90;;;;;;;-2.16;62.57;99231.87;104774;1272;74680;-22
2022/01/07 10:28:19;;;;;;;1.70;1.00;;;;;;;-2.15;62.83;99226.40;104946;1274;61324;-22
2022/01/07 10:30:54;;;;;;;1.20;0.90;;;;;;;-2.24;62.68;99225.27;104837;1274;61102;-22
2022/01/07 10:33:23;;;;;;;2.00;0.90;;;;;;;-2.00;62.65;99229.08;104740;1271;75716;-23
2022/01/07 10:35:53;;;;;;;2.00;1.20;;;;;;;-1.53;62.02;99220.96;104807;1271;75779;-22
2022/01/07 10:38:26;;;;;;;2.80;1.20;;;;;;;-1.21;60.20;99229.04;104743;1271;74172;-23
2022/01/07 10:40:59;;;;;;;2.20;1.10;;;;;;;-0.83;58.41;99227.02;104763;1271;61077;-22
2022/01/07 10:43:35;;;;;;;1.00;0.70;;;;;;;-0.51;56.70;99224.98;104773;1272;61180;-24
2022/01/07 10:46:31;;;;;;;2.00;0.80;;;;;;;-0.36;55.85;99226.71;104651;1271;75690;-23
2022/01/07 10:49:01;;;;;;;3.00;0.60;;;;;;;0.07;53.24;99224.91;104830;1271;73229;-23
2022/01/07 10:51:38;;;;;;;1.30;0.80;;;;;;;0.11;54.04;99222.53;104868;1271;74178;-23
2022/01/07 10:54:10;;;;;;;4.40;0.90;;;;;;;0.31;54.11;99233.95;105023;1272;61093;-23
2022/01/07 10:56:41;;;;;;;2.50;0.90;;;;;;;0.51;52.70;99222.83;104701;1272;61035;-22
2022/01/07 10:59:11;;;;;;;1.30;1.00;;;;;;;0.13;51.42;99217.52;104967;1271;75350;-23
2022/01/07 11:01:42;;;;;;;4.00;1.40;;;;;;;0.03;52.30;99228.78;104775;1271;74574;-22
2022/01/07 11:04:19;;;;;;;1.70;0.80;;;;;;;0.24;50.89;99232.33;104784;1271;74437;-23
2022/01/07 11:06:49;;;;;;;1.60;0.90;;;;;;;0.47;50.19;99226.02;104787;1271;61004;-25
2022/01/07 11:09:17;;;;;;;1.40;0.80;;;;;;;0.42;50.30;99225.88;104755;1271;61160;-24
2022/01/07 11:11:55;;;;;;;0.90;0.70;;;;;;;0.51;50.68;99231.37;104809;1271;75554;-24
2022/01/07 11:14:25;;;;;;;2.40;0.80;;;;;;;0.73;49.73;99222.34;104783;1271;74996;-22
2022/01/07 11:16:55;;;;;;;2.70;0.80;;;;;;;0.64;49.03;99216.18;104803;1274;73369;-23
2022/01/07 11:19:33;;;;;;;1.30;0.80;;;;;;;0.60;50.18;99224.88;104942;1271;61041;-26
2022/01/07 11:22:02;;;;;;;1.10;0.80;;;;;;;0.36;50.03;99216.88;104790;1274;61854;-23
2022/01/07 11:24:54;;;;;;;1.30;0.50;;;;;;;0.27;49.92;99222.33;104721;1274;74644;-23
2022/01/07 11:27:27;;;;;;;1.70;0.80;;;;;;;0.25;50.41;99226.83;104835;1271;74738;-24
2022/01/07 11:30:08;;;;;;;0.50;0.50;;;;;;;-0.06;50.94;99220.40;104749;1272;74684;-25
2022/01/07 11:32:38;;;;;;;1.30;0.70;;;;;;;-0.24;52.16;99219.31;105088;1271;61125;-23
2022/01/07 11:35:19;;;;;;;1.40;0.80;;;;;;;-0.30;52.32;99226.17;104826;1271;61506;-23
2022/01/07 11:37:53;;;;;;;0.80;0.60;;;;;;;-0.59;53.64;99222.85;104759;1272;75753;-23
2022/01/07 11:40:31;;;;;;;2.10;0.70;;;;;;;-0.56;53.44;99230.95;104641;1274;75786;-23
2022/01/07 11:43:08;;;;;;;1.70;0.60;;;;;;;-0.69;53.90;99232.71;104918;1274;72947;-23